sensor_id;sensor_type;location;lat;lon;timestamp;temperature;humidity
22337;DHT22;14992;50.844;4.418;2023-06-04T00:00:34;16.70;77.80
22337;DHT22;14992;50.844;4.418;2023-06-04T00:03:04;16.70;77.70
22337;DHT22;14992;50.844;4.418;2023-06-04T00:05:35;16.70;77.40
22337;DHT22;14992;50.844;4.418;2023-06-04T00:08:04;16.70;77.40
22337;DHT22;14992;50.844;4.418;2023-06-04T00:10:33;16.60;78.40
22337;DHT22;14992;50.844;4.418;2023-06-04T00:13:02;16.50;79.00
22337;DHT22;14992;50.844;4.418;2023-06-04T00:15:32;16.40;79.70
22337;DHT22;14992;50.844;4.418;2023-06-04T00:18:01;16.50;79.90
22337;DHT22;14992;50.844;4.418;2023-06-04T00:20:30;16.50;80.00
22337;DHT22;14992;50.844;4.418;2023-06-04T00:23:00;16.50;79.90
22337;DHT22;14992;50.844;4.418;2023-06-04T00:25:29;16.50;80.80
22337;DHT22;14992;50.844;4.418;2023-06-04T00:27:58;16.40;80.40
22337;DHT22;14992;50.844;4.418;2023-06-04T00:30:27;16.40;80.60
22337;DHT22;14992;50.844;4.418;2023-06-04T00:32:56;16.40;81.00
22337;DHT22;14992;50.844;4.418;2023-06-04T00:35:26;16.40;81.20
22337;DHT22;14992;50.844;4.418;2023-06-04T00:37:55;16.30;81.70
22337;DHT22;14992;50.844;4.418;2023-06-04T00:40:25;16.40;81.90
22337;DHT22;14992;50.844;4.418;2023-06-04T00:42:54;16.30;82.10
22337;DHT22;14992;50.844;4.418;2023-06-04T00:45:23;16.30;82.60
22337;DHT22;14992;50.844;4.418;2023-06-04T00:47:53;16.20;83.20
22337;DHT22;14992;50.844;4.418;2023-06-04T00:50:24;16.20;83.90
22337;DHT22;14992;50.844;4.418;2023-06-04T00:52:54;16.10;84.60
22337;DHT22;14992;50.844;4.418;2023-06-04T00:55:26;16.00;85.30
22337;DHT22;14992;50.844;4.418;2023-06-04T00:57:55;16.00;85.60
22337;DHT22;14992;50.844;4.418;2023-06-04T01:00:24;15.90;86.10
22337;DHT22;14992;50.844;4.418;2023-06-04T01:02:54;15.70;87.10
22337;DHT22;14992;50.844;4.418;2023-06-04T01:05:32;15.70;87.80
22337;DHT22;14992;50.844;4.418;2023-06-04T01:08:03;15.60;88.70
22337;DHT22;14992;50.844;4.418;2023-06-04T01:10:34;15.60;89.00
22337;DHT22;14992;50.844;4.418;2023-06-04T01:13:03;15.60;89.40
22337;DHT22;14992;50.844;4.418;2023-06-04T01:15:32;15.60;89.20
22337;DHT22;14992;50.844;4.418;2023-06-04T01:18:02;15.50;90.00
22337;DHT22;14992;50.844;4.418;2023-06-04T01:20:38;15.40;90.40
22337;DHT22;14992;50.844;4.418;2023-06-04T01:23:19;15.30;90.80
22337;DHT22;14992;50.844;4.418;2023-06-04T01:25:56;15.10;91.50
22337;DHT22;14992;50.844;4.418;2023-06-04T01:28:25;15.10;91.80
22337;DHT22;14992;50.844;4.418;2023-06-04T01:30:55;15.10;91.90
22337;DHT22;14992;50.844;4.418;2023-06-04T01:33:25;15.10;92.00
22337;DHT22;14992;50.844;4.418;2023-06-04T01:35:54;15.10;92.40
22337;DHT22;14992;50.844;4.418;2023-06-04T01:38:24;15.10;92.30
22337;DHT22;14992;50.844;4.418;2023-06-04T01:40:53;15.00;92.60
22337;DHT22;14992;50.844;4.418;2023-06-04T01:43:25;15.00;93.00
22337;DHT22;14992;50.844;4.418;2023-06-04T01:45:54;15.00;93.20
22337;DHT22;14992;50.844;4.418;2023-06-04T01:48:24;14.90;93.50
22337;DHT22;14992;50.844;4.418;2023-06-04T01:50:53;15.00;93.60
22337;DHT22;14992;50.844;4.418;2023-06-04T01:53:22;15.00;93.80
22337;DHT22;14992;50.844;4.418;2023-06-04T01:55:52;14.80;94.30
22337;DHT22;14992;50.844;4.418;2023-06-04T01:58:22;14.80;94.70
22337;DHT22;14992;50.844;4.418;2023-06-04T02:00:56;14.80;95.10
22337;DHT22;14992;50.844;4.418;2023-06-04T02:03:28;14.70;95.60
22337;DHT22;14992;50.844;4.418;2023-06-04T02:06:00;14.70;96.00
22337;DHT22;14992;50.844;4.418;2023-06-04T02:08:37;14.60;96.30
22337;DHT22;14992;50.844;4.418;2023-06-04T02:11:07;14.60;96.60
22337;DHT22;14992;50.844;4.418;2023-06-04T02:13:37;14.60;96.90
22337;DHT22;14992;50.844;4.418;2023-06-04T02:16:07;14.50;97.50
22337;DHT22;14992;50.844;4.418;2023-06-04T02:18:37;14.50;98.00
22337;DHT22;14992;50.844;4.418;2023-06-04T02:21:07;14.50;98.40
22337;DHT22;14992;50.844;4.418;2023-06-04T02:23:36;14.50;98.60
22337;DHT22;14992;50.844;4.418;2023-06-04T02:26:05;14.50;99.00
22337;DHT22;14992;50.844;4.418;2023-06-04T02:28:34;14.30;99.40
22337;DHT22;14992;50.844;4.418;2023-06-04T02:31:04;14.40;99.80
22337;DHT22;14992;50.844;4.418;2023-06-04T02:33:35;14.30;99.90
22337;DHT22;14992;50.844;4.418;2023-06-04T02:36:04;14.20;99.90
22337;DHT22;14992;50.844;4.418;2023-06-04T02:38:34;14.20;99.90
22337;DHT22;14992;50.844;4.418;2023-06-04T02:41:03;14.20;99.90
22337;DHT22;14992;50.844;4.418;2023-06-04T02:43:32;14.30;99.90
22337;DHT22;14992;50.844;4.418;2023-06-04T02:46:01;14.20;99.90
22337;DHT22;14992;50.844;4.418;2023-06-04T02:48:30;14.20;99.90
22337;DHT22;14992;50.844;4.418;2023-06-04T02:51:01;14.10;99.90
22337;DHT22;14992;50.844;4.418;2023-06-04T02:53:30;14.10;99.90
22337;DHT22;14992;50.844;4.418;2023-06-04T02:55:59;14.20;99.90
22337;DHT22;14992;50.844;4.418;2023-06-04T02:58:28;14.20;99.90
22337;DHT22;14992;50.844;4.418;2023-06-04T03:00:57;14.10;99.90
22337;DHT22;14992;50.844;4.418;2023-06-04T03:03:26;14.20;99.90
22337;DHT22;14992;50.844;4.418;2023-06-04T03:05:55;14.10;99.90
22337;DHT22;14992;50.844;4.418;2023-06-04T03:08:28;14.00;99.90
22337;DHT22;14992;50.844;4.418;2023-06-04T03:10:58;14.00;99.90
22337;DHT22;14992;50.844;4.418;2023-06-04T03:13:27;14.00;99.90
22337;DHT22;14992;50.844;4.418;2023-06-04T03:15:56;13.90;99.90
22337;DHT22;14992;50.844;4.418;2023-06-04T03:18:28;13.90;99.90
22337;DHT22;14992;50.844;4.418;2023-06-04T03:20:57;13.80;99.90
22337;DHT22;14992;50.844;4.418;2023-06-04T03:23:28;13.80;99.90
22337;DHT22;14992;50.844;4.418;2023-06-04T03:25:57;13.80;99.90
22337;DHT22;14992;50.844;4.418;2023-06-04T03:28:26;14.00;99.90
22337;DHT22;14992;50.844;4.418;2023-06-04T03:30:55;14.10;99.90
22337;DHT22;14992;50.844;4.418;2023-06-04T03:33:26;14.00;99.90
22337;DHT22;14992;50.844;4.418;2023-06-04T03:35:55;13.90;99.90
22337;DHT22;14992;50.844;4.418;2023-06-04T03:38:28;13.80;99.90
22337;DHT22;14992;50.844;4.418;2023-06-04T03:40:58;13.70;99.90
22337;DHT22;14992;50.844;4.418;2023-06-04T03:43:27;13.80;99.90
22337;DHT22;14992;50.844;4.418;2023-06-04T03:46:04;13.80;99.90
22337;DHT22;14992;50.844;4.418;2023-06-04T03:48:33;13.70;99.90
22337;DHT22;14992;50.844;4.418;2023-06-04T03:51:03;13.70;99.90
22337;DHT22;14992;50.844;4.418;2023-06-04T03:53:35;13.70;99.90
22337;DHT22;14992;50.844;4.418;2023-06-04T03:56:04;13.70;99.90
22337;DHT22;14992;50.844;4.418;2023-06-04T03:58:35;13.70;99.90
22337;DHT22;14992;50.844;4.418;2023-06-04T04:01:04;13.80;99.90
22337;DHT22;14992;50.844;4.418;2023-06-04T04:03:34;13.80;99.90
22337;DHT22;14992;50.844;4.418;2023-06-04T04:06:05;13.80;99.90
22337;DHT22;14992;50.844;4.418;2023-06-04T04:08:36;13.80;99.90
22337;DHT22;14992;50.844;4.418;2023-06-04T04:11:10;13.90;99.90
22337;DHT22;14992;50.844;4.418;2023-06-04T04:13:43;14.00;99.90
22337;DHT22;14992;50.844;4.418;2023-06-04T04:16:13;14.00;99.90
22337;DHT22;14992;50.844;4.418;2023-06-04T04:18:43;13.90;99.90
22337;DHT22;14992;50.844;4.418;2023-06-04T04:21:12;13.90;99.90
22337;DHT22;14992;50.844;4.418;2023-06-04T04:23:45;14.00;99.90
22337;DHT22;14992;50.844;4.418;2023-06-04T04:26:14;14.00;99.90
22337;DHT22;14992;50.844;4.418;2023-06-04T04:28:47;14.10;99.90
22337;DHT22;14992;50.844;4.418;2023-06-04T04:31:17;14.20;99.90
22337;DHT22;14992;50.844;4.418;2023-06-04T04:33:47;14.30;99.90
22337;DHT22;14992;50.844;4.418;2023-06-04T04:36:20;14.40;99.90
22337;DHT22;14992;50.844;4.418;2023-06-04T04:38:53;14.30;99.90
22337;DHT22;14992;50.844;4.418;2023-06-04T04:41:30;14.30;99.90
22337;DHT22;14992;50.844;4.418;2023-06-04T04:44:03;14.40;99.90
22337;DHT22;14992;50.844;4.418;2023-06-04T04:46:33;14.50;99.90
22337;DHT22;14992;50.844;4.418;2023-06-04T04:49:03;14.70;99.90
22337;DHT22;14992;50.844;4.418;2023-06-04T04:51:32;14.80;99.90
22337;DHT22;14992;50.844;4.418;2023-06-04T04:54:03;14.60;99.90
22337;DHT22;14992;50.844;4.418;2023-06-04T04:56:34;14.60;99.90
22337;DHT22;14992;50.844;4.418;2023-06-04T04:59:04;14.60;99.90
22337;DHT22;14992;50.844;4.418;2023-06-04T05:01:34;14.60;99.90
22337;DHT22;14992;50.844;4.418;2023-06-04T05:04:04;14.60;99.90
22337;DHT22;14992;50.844;4.418;2023-06-04T05:06:37;14.40;99.90
22337;DHT22;14992;50.844;4.418;2023-06-04T05:09:08;14.40;99.90
22337;DHT22;14992;50.844;4.418;2023-06-04T05:11:37;14.40;99.90
22337;DHT22;14992;50.844;4.418;2023-06-04T05:14:07;14.40;99.90
22337;DHT22;14992;50.844;4.418;2023-06-04T05:16:37;14.50;99.90
22337;DHT22;14992;50.844;4.418;2023-06-04T05:19:10;14.50;99.90
22337;DHT22;14992;50.844;4.418;2023-06-04T05:21:41;14.60;99.90
22337;DHT22;14992;50.844;4.418;2023-06-04T05:24:12;14.70;99.90
22337;DHT22;14992;50.844;4.418;2023-06-04T05:26:42;14.70;99.90
22337;DHT22;14992;50.844;4.418;2023-06-04T05:29:16;14.70;99.90
22337;DHT22;14992;50.844;4.418;2023-06-04T05:31:47;14.70;99.90
22337;DHT22;14992;50.844;4.418;2023-06-04T05:34:18;14.60;99.90
22337;DHT22;14992;50.844;4.418;2023-06-04T05:36:49;14.60;99.90
22337;DHT22;14992;50.844;4.418;2023-06-04T05:39:22;14.60;99.90
22337;DHT22;14992;50.844;4.418;2023-06-04T05:42:00;14.60;99.90
22337;DHT22;14992;50.844;4.418;2023-06-04T05:44:29;14.70;99.90
22337;DHT22;14992;50.844;4.418;2023-06-04T05:46:59;14.70;99.90
22337;DHT22;14992;50.844;4.418;2023-06-04T05:49:29;14.60;99.90
22337;DHT22;14992;50.844;4.418;2023-06-04T05:51:59;14.50;99.90
22337;DHT22;14992;50.844;4.418;2023-06-04T05:54:30;14.40;99.90
22337;DHT22;14992;50.844;4.418;2023-06-04T05:57:00;14.50;99.90
22337;DHT22;14992;50.844;4.418;2023-06-04T05:59:29;14.60;99.90
22337;DHT22;14992;50.844;4.418;2023-06-04T06:01:59;14.70;99.90
22337;DHT22;14992;50.844;4.418;2023-06-04T06:04:29;14.80;99.90
22337;DHT22;14992;50.844;4.418;2023-06-04T06:06:58;14.70;99.90
22337;DHT22;14992;50.844;4.418;2023-06-04T06:09:29;14.70;99.90
22337;DHT22;14992;50.844;4.418;2023-06-04T06:11:58;14.70;99.90
22337;DHT22;14992;50.844;4.418;2023-06-04T06:14:27;14.80;99.90
22337;DHT22;14992;50.844;4.418;2023-06-04T06:16:57;14.90;99.90
22337;DHT22;14992;50.844;4.418;2023-06-04T06:19:26;15.00;99.90
22337;DHT22;14992;50.844;4.418;2023-06-04T06:21:55;15.10;99.90
22337;DHT22;14992;50.844;4.418;2023-06-04T06:24:28;15.00;99.90
22337;DHT22;14992;50.844;4.418;2023-06-04T06:26:58;15.20;99.90
22337;DHT22;14992;50.844;4.418;2023-06-04T06:29:27;15.10;99.90
22337;DHT22;14992;50.844;4.418;2023-06-04T06:31:57;15.20;99.90
22337;DHT22;14992;50.844;4.418;2023-06-04T06:34:26;15.20;99.90
22337;DHT22;14992;50.844;4.418;2023-06-04T06:36:55;15.30;99.90
22337;DHT22;14992;50.844;4.418;2023-06-04T06:39:25;15.30;99.90
22337;DHT22;14992;50.844;4.418;2023-06-04T06:41:54;15.40;99.90
22337;DHT22;14992;50.844;4.418;2023-06-04T06:44:28;15.40;99.90
22337;DHT22;14992;50.844;4.418;2023-06-04T06:46:57;15.50;99.90
22337;DHT22;14992;50.844;4.418;2023-06-04T06:49:26;15.50;99.90
22337;DHT22;14992;50.844;4.418;2023-06-04T06:51:55;15.60;99.90
22337;DHT22;14992;50.844;4.418;2023-06-04T06:54:24;15.60;99.90
22337;DHT22;14992;50.844;4.418;2023-06-04T06:56:53;15.70;99.90
22337;DHT22;14992;50.844;4.418;2023-06-04T06:59:22;15.90;99.90
22337;DHT22;14992;50.844;4.418;2023-06-04T07:01:52;16.10;99.90
22337;DHT22;14992;50.844;4.418;2023-06-04T07:04:22;16.20;99.90
22337;DHT22;14992;50.844;4.418;2023-06-04T07:06:51;16.30;99.90
22337;DHT22;14992;50.844;4.418;2023-06-04T07:09:20;16.40;99.90
22337;DHT22;14992;50.844;4.418;2023-06-04T07:11:49;16.50;99.90
22337;DHT22;14992;50.844;4.418;2023-06-04T07:14:18;16.50;99.90
22337;DHT22;14992;50.844;4.418;2023-06-04T07:16:47;16.50;99.90
22337;DHT22;14992;50.844;4.418;2023-06-04T07:19:18;16.60;99.90
22337;DHT22;14992;50.844;4.418;2023-06-04T07:21:47;16.70;99.90
22337;DHT22;14992;50.844;4.418;2023-06-04T07:24:16;16.80;99.90
22337;DHT22;14992;50.844;4.418;2023-06-04T07:26:45;16.90;99.90
22337;DHT22;14992;50.844;4.418;2023-06-04T07:29:14;16.70;99.90
22337;DHT22;14992;50.844;4.418;2023-06-04T07:31:43;16.80;99.90
22337;DHT22;14992;50.844;4.418;2023-06-04T07:34:13;16.90;99.90
22337;DHT22;14992;50.844;4.418;2023-06-04T07:36:44;17.00;99.90
22337;DHT22;14992;50.844;4.418;2023-06-04T07:39:13;17.20;99.90
22337;DHT22;14992;50.844;4.418;2023-06-04T07:41:42;17.40;99.90
22337;DHT22;14992;50.844;4.418;2023-06-04T07:44:11;17.40;99.90
22337;DHT22;14992;50.844;4.418;2023-06-04T07:46:40;17.50;99.90
22337;DHT22;14992;50.844;4.418;2023-06-04T07:49:09;17.50;99.90
22337;DHT22;14992;50.844;4.418;2023-06-04T07:51:38;17.60;99.90
22337;DHT22;14992;50.844;4.418;2023-06-04T07:54:09;17.70;99.90
22337;DHT22;14992;50.844;4.418;2023-06-04T07:56:38;17.90;99.90
22337;DHT22;14992;50.844;4.418;2023-06-04T07:59:07;18.10;99.90
22337;DHT22;14992;50.844;4.418;2023-06-04T08:01:36;18.20;99.90
22337;DHT22;14992;50.844;4.418;2023-06-04T08:04:06;18.10;99.00
22337;DHT22;14992;50.844;4.418;2023-06-04T08:06:35;18.00;99.10
22337;DHT22;14992;50.844;4.418;2023-06-04T08:09:08;17.90;99.00
22337;DHT22;14992;50.844;4.418;2023-06-04T08:11:40;18.00;98.70
22337;DHT22;14992;50.844;4.418;2023-06-04T08:14:10;18.10;98.40
22337;DHT22;14992;50.844;4.418;2023-06-04T08:16:40;18.20;98.30
22337;DHT22;14992;50.844;4.418;2023-06-04T08:19:10;18.40;97.80
22337;DHT22;14992;50.844;4.418;2023-06-04T08:21:39;18.50;97.00
22337;DHT22;14992;50.844;4.418;2023-06-04T08:24:10;18.60;95.90
22337;DHT22;14992;50.844;4.418;2023-06-04T08:26:39;18.80;95.20
22337;DHT22;14992;50.844;4.418;2023-06-04T08:29:09;19.00;95.30
22337;DHT22;14992;50.844;4.418;2023-06-04T08:31:39;18.90;94.60
22337;DHT22;14992;50.844;4.418;2023-06-04T08:34:08;19.00;94.80
22337;DHT22;14992;50.844;4.418;2023-06-04T08:36:37;19.10;94.60
22337;DHT22;14992;50.844;4.418;2023-06-04T08:39:06;19.10;94.80
22337;DHT22;14992;50.844;4.418;2023-06-04T08:41:43;19.10;94.20
22337;DHT22;14992;50.844;4.418;2023-06-04T08:44:13;19.20;93.90
22337;DHT22;14992;50.844;4.418;2023-06-04T08:46:44;19.30;92.40
22337;DHT22;14992;50.844;4.418;2023-06-04T08:49:16;19.50;91.60
22337;DHT22;14992;50.844;4.418;2023-06-04T08:51:48;19.70;90.60
22337;DHT22;14992;50.844;4.418;2023-06-04T08:54:18;19.90;90.20
22337;DHT22;14992;50.844;4.418;2023-06-04T08:56:49;19.90;88.70
22337;DHT22;14992;50.844;4.418;2023-06-04T08:59:19;19.80;87.20
22337;DHT22;14992;50.844;4.418;2023-06-04T09:01:52;19.90;85.60
22337;DHT22;14992;50.844;4.418;2023-06-04T09:04:22;20.00;85.70
22337;DHT22;14992;50.844;4.418;2023-06-04T09:06:52;20.10;85.20
22337;DHT22;14992;50.844;4.418;2023-06-04T09:09:22;20.00;84.70
22337;DHT22;14992;50.844;4.418;2023-06-04T09:11:55;20.20;86.70
22337;DHT22;14992;50.844;4.418;2023-06-04T09:14:26;20.30;84.20
22337;DHT22;14992;50.844;4.418;2023-06-04T09:16:56;20.40;83.30
22337;DHT22;14992;50.844;4.418;2023-06-04T09:19:27;20.30;83.70
22337;DHT22;14992;50.844;4.418;2023-06-04T09:21:57;20.30;82.20
22337;DHT22;14992;50.844;4.418;2023-06-04T09:24:39;20.30;81.40
22337;DHT22;14992;50.844;4.418;2023-06-04T09:27:11;20.20;80.20
22337;DHT22;14992;50.844;4.418;2023-06-04T09:29:48;20.40;80.70
22337;DHT22;14992;50.844;4.418;2023-06-04T09:32:21;20.40;79.40
22337;DHT22;14992;50.844;4.418;2023-06-04T09:34:51;20.30;80.70
22337;DHT22;14992;50.844;4.418;2023-06-04T09:37:21;20.50;79.40
22337;DHT22;14992;50.844;4.418;2023-06-04T09:39:54;20.60;77.30
22337;DHT22;14992;50.844;4.418;2023-06-04T09:42:24;20.70;76.20
22337;DHT22;14992;50.844;4.418;2023-06-04T09:44:53;20.80;74.10
22337;DHT22;14992;50.844;4.418;2023-06-04T09:47:23;21.00;74.20
22337;DHT22;14992;50.844;4.418;2023-06-04T09:49:53;21.10;73.20
22337;DHT22;14992;50.844;4.418;2023-06-04T09:52:32;21.10;73.70
22337;DHT22;14992;50.844;4.418;2023-06-04T09:55:02;21.10;74.60
22337;DHT22;14992;50.844;4.418;2023-06-04T09:57:33;21.00;74.40
22337;DHT22;14992;50.844;4.418;2023-06-04T10:00:04;20.90;74.60
22337;DHT22;14992;50.844;4.418;2023-06-04T10:02:41;20.90;75.00
22337;DHT22;14992;50.844;4.418;2023-06-04T10:05:11;21.00;74.40
22337;DHT22;14992;50.844;4.418;2023-06-04T10:07:43;21.00;75.10
22337;DHT22;14992;50.844;4.418;2023-06-04T10:10:15;20.90;74.40
22337;DHT22;14992;50.844;4.418;2023-06-04T10:12:52;20.90;73.90
22337;DHT22;14992;50.844;4.418;2023-06-04T10:15:24;21.00;71.80
22337;DHT22;14992;50.844;4.418;2023-06-04T10:17:54;21.20;72.00
22337;DHT22;14992;50.844;4.418;2023-06-04T10:20:24;21.30;72.20
22337;DHT22;14992;50.844;4.418;2023-06-04T10:22:54;21.40;71.10
22337;DHT22;14992;50.844;4.418;2023-06-04T10:25:26;21.30;68.60
22337;DHT22;14992;50.844;4.418;2023-06-04T10:27:57;21.50;67.90
22337;DHT22;14992;50.844;4.418;2023-06-04T10:30:26;21.70;66.10
22337;DHT22;14992;50.844;4.418;2023-06-04T10:32:56;21.60;67.60
22337;DHT22;14992;50.844;4.418;2023-06-04T10:35:32;21.60;67.30
22337;DHT22;14992;50.844;4.418;2023-06-04T10:38:06;21.60;67.00
22337;DHT22;14992;50.844;4.418;2023-06-04T10:40:36;21.40;66.80
22337;DHT22;14992;50.844;4.418;2023-06-04T10:43:08;21.50;66.30
22337;DHT22;14992;50.844;4.418;2023-06-04T10:45:38;21.50;66.60
22337;DHT22;14992;50.844;4.418;2023-06-04T10:48:08;21.50;66.20
22337;DHT22;14992;50.844;4.418;2023-06-04T10:50:49;21.40;66.50
22337;DHT22;14992;50.844;4.418;2023-06-04T10:53:18;21.50;65.70
22337;DHT22;14992;50.844;4.418;2023-06-04T10:55:48;21.70;64.10
22337;DHT22;14992;50.844;4.418;2023-06-04T10:58:19;21.80;64.80
22337;DHT22;14992;50.844;4.418;2023-06-04T11:00:49;21.80;65.30
22337;DHT22;14992;50.844;4.418;2023-06-04T11:03:20;22.10;63.40
22337;DHT22;14992;50.844;4.418;2023-06-04T11:05:49;22.10;64.10
22337;DHT22;14992;50.844;4.418;2023-06-04T11:08:26;22.20;64.00
22337;DHT22;14992;50.844;4.418;2023-06-04T11:10:56;22.30;62.10
22337;DHT22;14992;50.844;4.418;2023-06-04T11:13:27;22.40;61.90
22337;DHT22;14992;50.844;4.418;2023-06-04T11:15:57;22.40;63.00
22337;DHT22;14992;50.844;4.418;2023-06-04T11:18:26;22.50;63.80
22337;DHT22;14992;50.844;4.418;2023-06-04T11:20:59;22.70;63.10
22337;DHT22;14992;50.844;4.418;2023-06-04T11:23:28;22.70;64.20
22337;DHT22;14992;50.844;4.418;2023-06-04T11:25:58;22.60;63.00
22337;DHT22;14992;50.844;4.418;2023-06-04T11:28:28;22.50;61.40
22337;DHT22;14992;50.844;4.418;2023-06-04T11:30:57;22.70;59.40
22337;DHT22;14992;50.844;4.418;2023-06-04T11:33:27;22.80;56.70
22337;DHT22;14992;50.844;4.418;2023-06-04T11:35:56;22.90;57.10
22337;DHT22;14992;50.844;4.418;2023-06-04T11:38:25;23.10;58.20
22337;DHT22;14992;50.844;4.418;2023-06-04T11:40:58;23.20;56.60
22337;DHT22;14992;50.844;4.418;2023-06-04T11:43:29;23.20;57.20
22337;DHT22;14992;50.844;4.418;2023-06-04T11:45:58;23.00;57.40
22337;DHT22;14992;50.844;4.418;2023-06-04T11:48:29;23.00;57.50
22337;DHT22;14992;50.844;4.418;2023-06-04T11:51:06;23.00;57.90
22337;DHT22;14992;50.844;4.418;2023-06-04T11:53:37;23.00;59.00
22337;DHT22;14992;50.844;4.418;2023-06-04T11:56:06;23.10;58.30
22337;DHT22;14992;50.844;4.418;2023-06-04T11:58:36;23.10;57.40
22337;DHT22;14992;50.844;4.418;2023-06-04T12:01:06;22.90;57.20
22337;DHT22;14992;50.844;4.418;2023-06-04T12:03:37;22.90;58.50
22337;DHT22;14992;50.844;4.418;2023-06-04T12:06:11;23.00;58.40
22337;DHT22;14992;50.844;4.418;2023-06-04T12:08:48;23.00;58.70
22337;DHT22;14992;50.844;4.418;2023-06-04T12:11:35;23.00;58.20
22337;DHT22;14992;50.844;4.418;2023-06-04T12:14:07;23.20;58.20
22337;DHT22;14992;50.844;4.418;2023-06-04T12:16:36;23.30;56.60
22337;DHT22;14992;50.844;4.418;2023-06-04T12:19:06;23.30;56.90
22337;DHT22;14992;50.844;4.418;2023-06-04T12:21:36;23.10;56.80
22337;DHT22;14992;50.844;4.418;2023-06-04T12:24:06;22.90;57.30
22337;DHT22;14992;50.844;4.418;2023-06-04T12:26:37;22.90;57.90
22337;DHT22;14992;50.844;4.418;2023-06-04T12:29:10;23.00;58.10
22337;DHT22;14992;50.844;4.418;2023-06-04T12:31:39;23.00;58.20
22337;DHT22;14992;50.844;4.418;2023-06-04T12:34:10;23.10;58.20
22337;DHT22;14992;50.844;4.418;2023-06-04T12:36:39;23.20;58.30
22337;DHT22;14992;50.844;4.418;2023-06-04T12:39:08;23.20;58.40
22337;DHT22;14992;50.844;4.418;2023-06-04T12:41:44;23.10;58.10
22337;DHT22;14992;50.844;4.418;2023-06-04T12:44:15;23.10;58.00
22337;DHT22;14992;50.844;4.418;2023-06-04T12:46:44;23.40;57.70
22337;DHT22;14992;50.844;4.418;2023-06-04T12:49:13;23.50;57.40
22337;DHT22;14992;50.844;4.418;2023-06-04T12:51:43;23.50;57.10
22337;DHT22;14992;50.844;4.418;2023-06-04T12:54:12;23.50;56.70
22337;DHT22;14992;50.844;4.418;2023-06-04T12:56:41;23.50;56.50
22337;DHT22;14992;50.844;4.418;2023-06-04T12:59:10;23.60;56.30
22337;DHT22;14992;50.844;4.418;2023-06-04T13:01:40;23.70;55.80
22337;DHT22;14992;50.844;4.418;2023-06-04T13:04:10;23.80;56.10
22337;DHT22;14992;50.844;4.418;2023-06-04T13:06:39;23.90;56.20
22337;DHT22;14992;50.844;4.418;2023-06-04T13:09:08;23.90;55.70
22337;DHT22;14992;50.844;4.418;2023-06-04T13:11:38;23.90;55.70
22337;DHT22;14992;50.844;4.418;2023-06-04T13:14:08;23.90;55.10
22337;DHT22;14992;50.844;4.418;2023-06-04T13:16:39;24.00;54.70
22337;DHT22;14992;50.844;4.418;2023-06-04T13:19:09;23.90;54.60
22337;DHT22;14992;50.844;4.418;2023-06-04T13:21:38;24.00;54.80
22337;DHT22;14992;50.844;4.418;2023-06-04T13:24:10;24.00;54.00
22337;DHT22;14992;50.844;4.418;2023-06-04T13:26:39;24.20;53.90
22337;DHT22;14992;50.844;4.418;2023-06-04T13:29:09;24.40;53.40
22337;DHT22;14992;50.844;4.418;2023-06-04T13:31:40;24.40;52.90
22337;DHT22;14992;50.844;4.418;2023-06-04T13:34:09;24.20;53.10
22337;DHT22;14992;50.844;4.418;2023-06-04T13:36:54;24.00;53.50
22337;DHT22;14992;50.844;4.418;2023-06-04T13:39:23;23.80;54.60
22337;DHT22;14992;50.844;4.418;2023-06-04T13:41:52;23.70;54.60
22337;DHT22;14992;50.844;4.418;2023-06-04T13:44:21;23.70;54.40
22337;DHT22;14992;50.844;4.418;2023-06-04T13:46:58;23.90;54.20
22337;DHT22;14992;50.844;4.418;2023-06-04T13:49:27;24.00;54.10
22337;DHT22;14992;50.844;4.418;2023-06-04T13:51:56;24.00;54.40
22337;DHT22;14992;50.844;4.418;2023-06-04T13:54:25;24.00;55.10
22337;DHT22;14992;50.844;4.418;2023-06-04T13:56:54;24.00;54.40
22337;DHT22;14992;50.844;4.418;2023-06-04T13:59:22;23.90;54.90
22337;DHT22;14992;50.844;4.418;2023-06-04T14:01:51;24.20;53.20
22337;DHT22;14992;50.844;4.418;2023-06-04T14:04:22;24.20;54.10
22337;DHT22;14992;50.844;4.418;2023-06-04T14:06:51;24.10;53.40
22337;DHT22;14992;50.844;4.418;2023-06-04T14:09:20;24.10;52.50
22337;DHT22;14992;50.844;4.418;2023-06-04T14:11:49;24.20;52.80
22337;DHT22;14992;50.844;4.418;2023-06-04T14:14:19;24.40;52.30
22337;DHT22;14992;50.844;4.418;2023-06-04T14:16:48;24.40;52.40
22337;DHT22;14992;50.844;4.418;2023-06-04T14:19:17;24.20;53.00
22337;DHT22;14992;50.844;4.418;2023-06-04T14:21:48;24.20;52.30
22337;DHT22;14992;50.844;4.418;2023-06-04T14:24:17;24.20;51.90
22337;DHT22;14992;50.844;4.418;2023-06-04T14:26:46;24.20;51.70
22337;DHT22;14992;50.844;4.418;2023-06-04T14:29:16;24.20;51.90
22337;DHT22;14992;50.844;4.418;2023-06-04T14:31:45;24.20;51.70
22337;DHT22;14992;50.844;4.418;2023-06-04T14:34:14;24.20;51.50
22337;DHT22;14992;50.844;4.418;2023-06-04T14:36:43;24.20;51.00
22337;DHT22;14992;50.844;4.418;2023-06-04T14:39:13;24.30;51.00
22337;DHT22;14992;50.844;4.418;2023-06-04T14:41:42;24.40;51.00
22337;DHT22;14992;50.844;4.418;2023-06-04T14:44:11;24.50;51.30
22337;DHT22;14992;50.844;4.418;2023-06-04T14:46:40;24.60;49.90
22337;DHT22;14992;50.844;4.418;2023-06-04T14:49:09;24.80;49.50
22337;DHT22;14992;50.844;4.418;2023-06-04T14:51:38;24.90;49.50
22337;DHT22;14992;50.844;4.418;2023-06-04T14:54:07;25.00;49.80
22337;DHT22;14992;50.844;4.418;2023-06-04T14:56:37;24.70;50.10
22337;DHT22;14992;50.844;4.418;2023-06-04T14:59:06;24.60;50.30
22337;DHT22;14992;50.844;4.418;2023-06-04T15:01:38;24.60;50.30
22337;DHT22;14992;50.844;4.418;2023-06-04T15:04:08;24.60;50.20
22337;DHT22;14992;50.844;4.418;2023-06-04T15:06:37;24.70;49.70
22337;DHT22;14992;50.844;4.418;2023-06-04T15:09:06;24.70;49.70
22337;DHT22;14992;50.844;4.418;2023-06-04T15:11:37;25.00;49.40
22337;DHT22;14992;50.844;4.418;2023-06-04T15:14:06;25.10;49.10
22337;DHT22;14992;50.844;4.418;2023-06-04T15:16:35;25.00;48.50
22337;DHT22;14992;50.844;4.418;2023-06-04T15:19:04;25.00;48.20
22337;DHT22;14992;50.844;4.418;2023-06-04T15:21:33;25.00;48.00
22337;DHT22;14992;50.844;4.418;2023-06-04T15:24:03;24.90;47.90
22337;DHT22;14992;50.844;4.418;2023-06-04T15:26:32;24.90;47.80
22337;DHT22;14992;50.844;4.418;2023-06-04T15:29:02;24.90;47.80
22337;DHT22;14992;50.844;4.418;2023-06-04T15:31:31;25.00;48.00
22337;DHT22;14992;50.844;4.418;2023-06-04T15:34:00;25.00;47.90
22337;DHT22;14992;50.844;4.418;2023-06-04T15:36:29;25.10;48.30
22337;DHT22;14992;50.844;4.418;2023-06-04T15:38:58;25.20;47.90
22337;DHT22;14992;50.844;4.418;2023-06-04T15:41:27;25.30;47.80
22337;DHT22;14992;50.844;4.418;2023-06-04T15:43:56;25.40;47.30
22337;DHT22;14992;50.844;4.418;2023-06-04T15:46:30;25.20;47.20
22337;DHT22;14992;50.844;4.418;2023-06-04T15:49:05;25.10;47.30